createdAt,value
2018-11-02T00:02:21.429Z,18.50
2018-11-02T00:04:49.993Z,18.90
2018-11-02T00:07:18.529Z,17.75
2018-11-02T00:09:47.090Z,17.73
2018-11-02T00:12:16.821Z,16.70
2018-11-02T00:14:45.761Z,17.10
2018-11-02T00:17:15.637Z,17.67
2018-11-02T00:19:44.130Z,16.40
2018-11-02T00:22:12.674Z,16.63
2018-11-02T00:24:41.186Z,17.90
2018-11-02T00:27:09.702Z,17.13
2018-11-02T00:38:17.450Z,17.62
2018-11-02T00:40:46.055Z,16.90
2018-11-02T00:48:11.801Z,17.13
2018-11-02T00:50:40.299Z,16.70
2018-11-02T00:53:08.776Z,17.93
2018-11-02T01:01:32.325Z,16.65
2018-11-02T01:04:00.868Z,18.33
2018-11-02T01:06:29.859Z,17.17
2018-11-02T01:08:58.879Z,17.33
2018-11-02T01:11:27.397Z,17.87
2018-11-02T01:13:55.939Z,19.63
2018-11-02T01:16:24.546Z,19.50
2018-11-02T01:18:53.137Z,20.20
2018-11-02T01:21:21.697Z,20.60
2018-11-02T01:23:56.742Z,21.00
2018-11-02T01:26:25.287Z,19.50
2018-11-02T01:28:53.900Z,18.10
2018-11-02T01:31:22.685Z,17.73
2018-11-02T01:33:52.657Z,21.30
2018-11-02T01:36:21.219Z,26.42
2018-11-02T01:38:50.973Z,21.90
2018-11-02T01:41:19.487Z,20.85
2018-11-02T01:43:48.019Z,19.57
2018-11-02T01:46:17.431Z,19.57
2018-11-02T01:48:45.930Z,22.13
2018-11-02T01:56:13.132Z,19.10
2018-11-02T01:58:41.655Z,21.17
2018-11-02T02:01:10.240Z,21.60
2018-11-02T02:03:38.794Z,21.17
2018-11-02T02:06:07.329Z,19.80
2018-11-02T02:08:35.975Z,19.80
2018-11-02T02:11:04.894Z,19.85
2018-11-02T02:13:34.224Z,21.23
2018-11-02T02:16:02.763Z,20.00
2018-11-02T02:18:31.923Z,20.57
2018-11-02T02:21:00.469Z,18.87
2018-11-02T02:23:29.059Z,20.17
2018-11-02T02:25:57.601Z,19.63
2018-11-02T02:28:26.089Z,18.97
2018-11-02T02:30:54.577Z,18.37
2018-11-02T02:33:23.126Z,18.30
2018-11-02T02:35:52.383Z,18.80
2018-11-02T02:38:20.887Z,18.77
2018-11-02T02:40:49.930Z,18.05
2018-11-02T02:43:18.472Z,18.52
2018-11-02T02:45:46.962Z,19.43
2018-11-02T02:53:12.780Z,19.40
2018-11-02T02:55:41.321Z,19.30
2018-11-02T02:58:09.854Z,19.07
2018-11-02T03:06:36.244Z,19.80
2018-11-02T03:09:06.393Z,19.90
2018-11-02T03:11:34.902Z,22.13
2018-11-02T03:14:03.486Z,22.80
2018-11-02T03:16:32.067Z,22.73
2018-11-02T03:19:00.612Z,22.47
2018-11-02T03:21:29.510Z,21.70
2018-11-02T03:23:58.100Z,30.80
2018-11-02T03:26:26.638Z,25.20
2018-11-02T03:28:55.190Z,23.03
2018-11-02T03:31:23.722Z,31.67
2018-11-02T03:33:52.648Z,37.40
2018-11-02T03:36:21.778Z,36.13
2018-11-02T03:38:50.269Z,32.73
2018-11-02T03:41:18.793Z,32.93
2018-11-02T03:43:47.629Z,30.90
2018-11-02T03:46:16.482Z,33.10
2018-11-02T03:48:45.166Z,39.10
2018-11-02T03:51:14.609Z,44.83
2018-11-02T03:53:43.209Z,49.73
2018-11-02T03:56:11.806Z,46.20
2018-11-02T03:58:40.372Z,53.47
2018-11-02T04:01:08.908Z,37.27
2018-11-02T04:09:23.511Z,23.60
2018-11-02T04:11:51.949Z,22.80
2018-11-02T04:14:20.475Z,23.67
2018-11-02T04:16:49.640Z,22.10
2018-11-02T04:19:18.142Z,21.67
2018-11-02T04:21:47.645Z,21.90
2018-11-02T04:24:18.302Z,22.62
2018-11-02T04:26:46.846Z,23.03
2018-11-02T04:34:13.816Z,21.57
2018-11-02T04:36:43.220Z,22.93
2018-11-02T04:39:12.966Z,22.90
2018-11-02T04:41:42.260Z,21.95
2018-11-02T04:44:11.485Z,23.37
2018-11-02T04:46:40.153Z,21.40
2018-11-02T04:49:09.172Z,21.83
2018-11-02T04:57:39.649Z,21.62
2018-11-02T05:00:09.801Z,20.55
2018-11-02T05:02:38.394Z,22.53
2018-11-02T05:05:07.002Z,23.70
2018-11-02T05:07:35.571Z,20.87
2018-11-02T05:10:04.307Z,24.23
2018-11-02T05:12:32.846Z,20.50
2018-11-02T05:15:01.381Z,20.33
2018-11-02T05:17:29.934Z,22.20
2018-11-02T05:19:58.418Z,25.45
2018-11-02T05:22:27.610Z,24.30
2018-11-02T05:24:56.127Z,25.97
2018-11-02T05:27:24.678Z,26.60
2018-11-02T05:29:53.263Z,25.80
2018-11-02T05:32:21.790Z,25.48
2018-11-02T05:34:50.368Z,25.50
2018-11-02T05:37:20.150Z,24.13
2018-11-02T05:39:49.730Z,23.47
2018-11-02T05:42:18.389Z,23.13
2018-11-02T05:44:47.313Z,24.07
2018-11-02T05:47:16.589Z,24.07
2018-11-02T05:49:45.546Z,23.40
2018-11-02T05:57:09.530Z,21.80
2018-11-02T05:59:38.030Z,20.67
2018-11-02T06:02:07.173Z,20.00
2018-11-02T06:04:35.767Z,38.27
2018-11-02T06:07:04.298Z,22.40
2018-11-02T06:09:32.818Z,21.40
2018-11-02T06:12:01.364Z,19.50
2018-11-02T06:14:31.598Z,21.37
2018-11-02T06:17:00.158Z,21.93
2018-11-02T06:19:29.494Z,21.13
2018-11-02T06:21:58.294Z,20.57
2018-11-02T06:24:26.880Z,19.87
2018-11-02T06:26:56.611Z,19.77
2018-11-02T06:29:25.426Z,19.27
2018-11-02T06:31:53.945Z,20.93
2018-11-02T06:34:22.482Z,20.10
2018-11-02T06:36:51.003Z,19.40
2018-11-02T06:39:20.211Z,21.12
2018-11-02T06:41:48.750Z,18.73
2018-11-02T06:44:18.366Z,20.43
2018-11-02T06:46:46.946Z,20.90
2018-11-02T06:49:17.023Z,20.60
2018-11-02T06:51:45.972Z,20.90
2018-11-02T06:59:12.085Z,20.70
2018-11-02T07:01:40.608Z,20.82
2018-11-02T07:04:09.187Z,21.20
2018-11-02T07:06:38.446Z,22.83
2018-11-02T07:09:09.384Z,23.30
2018-11-02T07:11:38.487Z,23.90
2018-11-02T07:14:07.586Z,24.10
2018-11-02T07:16:36.102Z,25.60
2018-11-02T07:19:04.576Z,23.37
2018-11-02T07:21:33.415Z,23.53
2018-11-02T07:24:01.935Z,22.30
2018-11-02T07:26:30.439Z,22.50
2018-11-02T07:28:59.310Z,22.90
2018-11-02T07:31:28.435Z,23.27
2018-11-02T07:33:56.978Z,23.20
2018-11-02T07:36:25.590Z,24.85
2018-11-02T07:38:54.131Z,26.60
2018-11-02T07:41:25.201Z,24.80
2018-11-02T07:43:53.886Z,26.07
2018-11-02T07:46:22.410Z,25.77
2018-11-02T07:48:50.942Z,23.43
2018-11-02T07:51:19.591Z,23.45
2018-11-02T07:53:48.051Z,23.00
2018-11-02T07:56:17.836Z,22.50
2018-11-02T07:58:46.627Z,23.80
2018-11-02T08:01:16.590Z,26.52
2018-11-02T08:03:45.369Z,26.53
2018-11-02T08:06:14.826Z,24.70
2018-11-02T08:08:43.361Z,23.70
2018-11-02T08:11:12.204Z,23.83
2018-11-02T08:13:40.817Z,23.70
2018-11-02T08:16:09.322Z,21.60
2018-11-02T08:18:37.842Z,22.37
2018-11-02T08:21:06.448Z,22.20
2018-11-02T08:23:35.445Z,20.00
2018-11-02T08:26:04.060Z,20.23
2018-11-02T08:28:32.650Z,20.40
2018-11-02T08:31:01.175Z,20.17
2018-11-02T08:33:29.755Z,22.20
2018-11-02T08:35:58.495Z,21.60
2018-11-02T08:38:27.607Z,18.77
2018-11-02T08:40:56.113Z,17.33
2018-11-02T08:43:25.451Z,18.07
2018-11-02T08:45:56.669Z,17.80
2018-11-02T08:48:25.222Z,16.97
2018-11-02T08:50:53.766Z,16.33
2018-11-02T08:53:22.550Z,16.93
2018-11-02T08:55:51.093Z,17.30
2018-11-02T08:58:19.783Z,17.73
2018-11-02T09:00:48.226Z,16.43
2018-11-02T09:03:17.479Z,15.58
2018-11-02T09:05:46.017Z,15.50
2018-11-02T09:08:15.617Z,15.97
2018-11-02T09:10:44.933Z,16.93
2018-11-02T09:13:13.555Z,16.40
2018-11-02T09:15:42.118Z,15.50
2018-11-02T09:18:11.022Z,16.10
2018-11-02T09:20:40.509Z,16.00
2018-11-02T09:23:08.993Z,15.13
2018-11-02T09:25:37.511Z,17.17
2018-11-02T09:28:06.271Z,15.53
2018-11-02T09:30:34.729Z,15.60
2018-11-02T09:33:03.272Z,17.23
2018-11-02T09:35:31.879Z,16.77
2018-11-02T09:38:00.443Z,17.45
2018-11-02T09:40:29.005Z,17.37
2018-11-02T09:42:57.893Z,17.37
2018-11-02T09:45:28.018Z,18.12
2018-11-02T09:47:56.538Z,17.27
2018-11-02T09:50:25.095Z,18.40
2018-11-02T09:52:53.572Z,18.47
2018-11-02T09:55:22.083Z,16.67
2018-11-02T09:57:50.783Z,17.97
2018-11-02T10:00:19.141Z,17.00
2018-11-02T10:02:47.666Z,18.63
2018-11-02T10:05:16.550Z,17.17
2018-11-02T10:07:45.110Z,18.27
2018-11-02T10:10:14.548Z,17.35
2018-11-02T10:12:43.169Z,18.20
2018-11-02T10:15:14.096Z,18.82
2018-11-02T10:17:42.670Z,17.83
2018-11-02T10:20:11.782Z,17.77
2018-11-02T10:22:40.372Z,17.53
2018-11-02T10:25:09.858Z,21.03
2018-11-02T10:36:17.590Z,19.55
2018-11-02T10:38:46.265Z,19.47
2018-11-02T10:41:19.825Z,20.50
2018-11-02T10:43:48.822Z,19.57
2018-11-02T10:46:18.824Z,19.70
2018-11-02T10:48:47.392Z,20.17
2018-11-02T10:51:16.716Z,19.85
2018-11-02T10:53:45.265Z,21.57
2018-11-02T10:56:14.871Z,20.67
2018-11-02T10:58:43.533Z,20.00
2018-11-02T11:01:17.460Z,19.07
2018-11-02T11:03:46.234Z,20.67
2018-11-02T11:11:15.252Z,21.63
2018-11-02T11:13:44.226Z,20.07
2018-11-02T11:16:12.659Z,21.37
2018-11-02T11:18:41.276Z,21.43
2018-11-02T11:21:09.927Z,21.50
2018-11-02T11:29:36.099Z,22.50
2018-11-02T11:32:05.118Z,21.80
2018-11-02T11:34:33.649Z,23.05
2018-11-02T11:37:02.196Z,22.10
2018-11-02T11:39:30.863Z,24.10
2018-11-02T11:41:59.434Z,23.50
2018-11-02T11:44:28.242Z,23.00
2018-11-02T11:46:57.197Z,21.83
2018-11-02T11:49:26.115Z,23.20
2018-11-02T11:51:54.859Z,24.27
2018-11-02T11:54:23.405Z,22.37
2018-11-02T11:56:52.692Z,23.33
2018-11-02T11:59:21.321Z,22.70
2018-11-02T12:01:49.911Z,23.00
2018-11-02T12:04:18.529Z,25.20
2018-11-02T12:06:47.256Z,25.17
2018-11-02T12:09:17.426Z,23.77
2018-11-02T12:11:46.117Z,24.77
2018-11-02T12:19:13.550Z,25.97
2018-11-02T12:21:42.095Z,25.23
2018-11-02T12:24:10.647Z,26.83
2018-11-02T12:26:39.506Z,28.13
2018-11-02T12:29:08.003Z,25.20
2018-11-02T12:31:36.576Z,25.57
2018-11-02T12:34:05.454Z,26.70
2018-11-02T12:36:33.949Z,26.65
2018-11-02T12:39:03.195Z,26.65
2018-11-02T12:41:31.818Z,24.57
2018-11-02T12:44:00.593Z,26.40
2018-11-02T12:46:36.030Z,26.83
2018-11-02T12:49:05.762Z,24.20
2018-11-02T12:51:34.058Z,25.25
2018-11-02T12:54:02.640Z,24.63
2018-11-02T12:56:31.175Z,24.20
2018-11-02T12:58:59.693Z,22.87
2018-11-02T13:01:28.234Z,24.70
2018-11-02T13:03:56.750Z,25.00
2018-11-02T13:06:25.278Z,24.00
2018-11-02T13:08:54.470Z,29.93
2018-11-02T13:11:23.193Z,27.50
2018-11-02T13:13:51.815Z,24.77
2018-11-02T13:16:20.354Z,25.50
2018-11-02T13:18:48.882Z,22.00
2018-11-02T13:21:17.413Z,21.45
2018-11-02T13:23:45.934Z,21.10
2018-11-02T13:31:15.633Z,16.20
2018-11-02T13:33:44.201Z,15.93
2018-11-02T13:36:13.846Z,23.73
2018-11-02T13:38:42.398Z,23.33
2018-11-02T13:41:10.958Z,24.60
2018-11-02T13:43:39.611Z,25.75
2018-11-02T13:46:08.015Z,27.33
2018-11-02T13:48:36.528Z,27.17
2018-11-02T13:51:06.071Z,27.17
2018-11-02T13:53:34.802Z,27.40
2018-11-02T13:56:03.767Z,27.33
2018-11-02T13:58:32.320Z,25.77
2018-11-02T14:01:00.911Z,24.97
2018-11-02T14:03:29.463Z,26.23
2018-11-02T14:05:58.429Z,26.77
2018-11-02T14:08:27.057Z,25.82
2018-11-02T14:10:55.697Z,27.05
2018-11-02T14:13:24.635Z,26.50
2018-11-02T14:15:53.510Z,26.47
2018-11-02T14:18:23.404Z,25.90
2018-11-02T14:20:53.338Z,26.97
2018-11-02T14:23:21.851Z,23.70
2018-11-02T14:25:50.376Z,26.57
2018-11-02T14:28:18.906Z,26.63
2018-11-02T14:42:19.217Z,26.87
2018-11-02T14:44:47.802Z,29.20
2018-11-02T14:47:17.441Z,26.20
2018-11-02T14:49:46.365Z,26.90
2018-11-02T14:57:16.437Z,26.40
2018-11-02T14:59:45.081Z,28.07
2018-11-02T15:02:13.675Z,33.38
2018-11-02T15:04:42.286Z,31.50
2018-11-02T15:07:10.862Z,35.03
2018-11-02T15:09:40.123Z,32.83
2018-11-02T15:12:09.039Z,36.97
2018-11-02T15:14:38.479Z,31.40
2018-11-02T15:17:08.901Z,31.83
2018-11-02T15:19:37.442Z,36.68
2018-11-02T15:22:06.413Z,34.60
2018-11-02T15:24:34.936Z,34.43
2018-11-02T15:27:03.549Z,34.90
2018-11-02T15:29:32.078Z,34.77
2018-11-02T15:32:00.592Z,36.08
2018-11-02T15:34:29.449Z,36.30
2018-11-02T15:36:57.946Z,35.53
2018-11-02T15:39:26.478Z,37.15
2018-11-02T15:41:55.089Z,31.80
2018-11-02T15:44:23.643Z,35.20
2018-11-02T15:46:52.174Z,40.00
2018-11-02T15:49:20.731Z,39.85
2018-11-02T15:51:50.120Z,38.83
2018-11-02T15:54:19.298Z,38.50
2018-11-02T15:56:48.338Z,39.03
2018-11-02T15:59:17.468Z,39.27
2018-11-02T16:01:46.018Z,38.60
2018-11-02T16:09:11.250Z,38.70
2018-11-02T16:11:39.794Z,41.57
2018-11-02T16:14:08.592Z,39.57
2018-11-02T16:16:37.726Z,42.67
2018-11-02T16:19:06.338Z,41.63
2018-11-02T16:21:35.186Z,42.07
2018-11-02T16:24:03.752Z,40.60
2018-11-02T16:26:32.258Z,41.83
2018-11-02T16:29:00.775Z,45.70
2018-11-02T16:31:29.361Z,44.13
2018-11-02T16:33:57.937Z,43.50
2018-11-02T16:36:26.425Z,40.20
2018-11-02T16:38:55.723Z,40.27
2018-11-02T16:41:24.237Z,40.93
2018-11-02T16:43:52.782Z,39.90
2018-11-02T16:46:22.336Z,38.98
2018-11-02T16:48:50.850Z,38.80
2018-11-02T16:51:20.849Z,37.50
2018-11-02T16:53:49.435Z,37.80
2018-11-02T16:56:18.624Z,32.07
2018-11-02T16:58:47.309Z,38.30
2018-11-02T17:01:16.622Z,36.83
2018-11-02T17:03:45.193Z,35.70
2018-11-02T17:06:15.922Z,33.87
2018-11-02T17:08:44.722Z,32.90
2018-11-02T17:11:13.278Z,32.30
2018-11-02T17:13:42.427Z,31.27
2018-11-02T17:16:11.164Z,36.20
2018-11-02T17:18:39.840Z,39.73
2018-11-02T17:21:08.499Z,42.03
2018-11-02T17:23:37.720Z,42.60
2018-11-02T17:26:06.958Z,42.33
2018-11-02T17:28:35.872Z,36.15
2018-11-02T17:31:05.652Z,38.00
2018-11-02T17:33:34.519Z,51.20
2018-11-02T17:36:05.386Z,37.00
2018-11-02T17:38:33.990Z,36.50
2018-11-02T17:41:02.514Z,39.50
2018-11-02T17:43:31.049Z,39.30
2018-11-02T17:46:00.906Z,36.60
2018-11-02T17:48:29.993Z,36.73
2018-11-02T17:50:58.484Z,39.13
2018-11-02T17:53:27.180Z,35.57
2018-11-02T17:55:55.659Z,40.80
2018-11-02T17:58:25.543Z,37.47
2018-11-02T18:00:54.085Z,40.73
2018-11-02T18:03:22.565Z,35.87
2018-11-02T18:05:51.093Z,36.97
2018-11-02T18:08:20.152Z,37.75
2018-11-02T18:10:48.701Z,40.00
2018-11-02T18:13:17.414Z,41.87
2018-11-02T18:15:45.961Z,41.27
2018-11-02T18:23:07.374Z,40.53
2018-11-02T18:25:35.966Z,41.13
2018-11-02T18:28:04.878Z,40.35
2018-11-02T18:30:34.221Z,35.52
2018-11-02T18:33:02.749Z,37.80
2018-11-02T18:35:31.324Z,35.63
2018-11-02T18:37:59.798Z,36.53
2018-11-02T18:40:28.382Z,35.57
2018-11-02T18:42:56.918Z,38.40
2018-11-02T18:45:25.487Z,38.87
2018-11-02T18:47:54.079Z,33.27
2018-11-02T18:50:23.094Z,37.73
2018-11-02T18:52:52.026Z,41.10
2018-11-02T18:55:20.958Z,40.00
2018-11-02T18:57:49.510Z,41.05
2018-11-02T19:00:19.162Z,39.75
2018-11-02T19:02:48.203Z,38.23
2018-11-02T19:05:18.692Z,40.08
2018-11-02T19:07:47.278Z,41.13
2018-11-02T19:10:16.538Z,40.04
2018-11-02T19:12:45.685Z,38.27
2018-11-02T19:15:17.919Z,39.48
2018-11-02T19:17:46.521Z,39.50
2018-11-02T19:20:17.044Z,44.42
2018-11-02T19:22:45.724Z,42.78
2018-11-02T19:25:16.827Z,39.55
2018-11-02T19:27:46.041Z,42.73
2018-11-02T19:35:12.661Z,49.43
2018-11-02T19:37:41.012Z,51.30
2018-11-02T19:40:11.739Z,49.95
2018-11-02T19:42:45.686Z,49.77
2018-11-02T19:45:15.604Z,48.73
2018-11-02T19:47:49.420Z,57.57
2018-11-02T19:50:19.439Z,49.20
2018-11-02T19:52:47.986Z,48.40
2018-11-02T19:55:18.709Z,46.92
2018-11-02T19:57:47.165Z,49.30
2018-11-02T20:00:17.144Z,45.50
2018-11-02T20:02:46.877Z,45.97
2018-11-02T20:05:17.832Z,45.60
2018-11-02T20:07:46.377Z,44.40
2018-11-02T20:20:08.222Z,39.63
2018-11-02T20:22:37.000Z,39.10
2018-11-02T20:25:06.467Z,38.00
2018-11-02T20:27:34.993Z,37.63
2018-11-02T20:30:03.678Z,37.93
2018-11-02T20:32:32.328Z,38.63
2018-11-02T20:35:01.465Z,39.90
2018-11-02T20:37:30.491Z,36.80
2018-11-02T20:39:59.205Z,36.93
2018-11-02T20:42:28.293Z,37.87
2018-11-02T20:44:57.104Z,40.40
2018-11-02T20:47:25.663Z,40.67
2018-11-02T20:49:54.274Z,38.67
2018-11-02T20:52:22.785Z,40.17
2018-11-02T20:54:51.496Z,38.83
2018-11-02T20:57:21.556Z,41.97
2018-11-02T20:59:51.470Z,39.23
2018-11-02T21:02:20.256Z,40.00
2018-11-02T21:04:51.403Z,37.90
2018-11-02T21:07:20.044Z,38.43
2018-11-02T21:09:48.893Z,36.08
2018-11-02T21:12:18.663Z,37.85
2018-11-02T21:14:47.274Z,37.10
2018-11-02T21:17:17.195Z,35.68
2018-11-02T21:19:45.827Z,38.93
2018-11-02T21:22:15.656Z,40.90
2018-11-02T21:24:44.239Z,41.63
2018-11-02T21:27:12.810Z,40.03
2018-11-02T21:41:12.428Z,41.43
2018-11-02T21:43:41.634Z,42.00
2018-11-02T21:46:10.166Z,40.57
2018-11-02T21:48:38.690Z,42.50
2018-11-02T21:51:07.258Z,42.70
2018-11-02T21:53:35.822Z,43.83
2018-11-02T21:56:04.339Z,43.87
2018-11-02T21:58:32.955Z,43.20
2018-11-02T22:01:01.398Z,44.20
2018-11-02T22:03:29.882Z,44.40
2018-11-02T22:06:00.166Z,46.95
2018-11-02T22:08:28.583Z,46.10
2018-11-02T22:10:57.094Z,47.83
2018-11-02T22:13:25.666Z,47.57
2018-11-02T22:15:55.210Z,48.07
2018-11-02T22:18:24.267Z,49.93
2018-11-02T22:20:52.852Z,47.77
2018-11-02T22:23:21.436Z,49.55
2018-11-02T22:25:49.967Z,49.67
2018-11-02T22:28:18.686Z,50.33
2018-11-02T22:30:47.199Z,48.67
2018-11-02T22:33:17.474Z,50.58
2018-11-02T22:35:46.011Z,47.40
2018-11-02T22:38:15.538Z,49.45
2018-11-02T22:40:44.052Z,48.53
2018-11-02T22:43:12.588Z,49.83
2018-11-02T22:45:41.107Z,49.03
2018-11-02T22:48:15.241Z,48.33
2018-11-02T22:50:43.790Z,47.97
2018-11-02T22:53:12.388Z,49.20
2018-11-02T22:55:40.970Z,50.40
2018-11-02T22:58:09.517Z,46.65
2018-11-02T23:00:43.394Z,46.87
2018-11-02T23:03:11.918Z,49.83
2018-11-02T23:05:40.498Z,48.90
2018-11-02T23:08:09.631Z,47.10
2018-11-02T23:10:38.182Z,47.00
2018-11-02T23:13:07.373Z,47.40
2018-11-02T23:15:35.909Z,48.50
2018-11-02T23:18:04.438Z,47.98
2018-11-02T23:20:32.939Z,45.30
2018-11-02T23:23:01.467Z,47.83
2018-11-02T23:25:29.990Z,48.90
2018-11-02T23:27:58.485Z,46.02
2018-11-02T23:30:27.642Z,45.88
2018-11-02T23:32:56.140Z,45.60
2018-11-02T23:35:24.655Z,45.83
2018-11-02T23:37:53.186Z,47.67
2018-11-02T23:40:21.715Z,46.70
2018-11-02T23:42:50.297Z,47.73
2018-11-02T23:45:18.866Z,47.58
2018-11-02T23:47:52.671Z,45.43
2018-11-02T23:50:21.662Z,44.88
2018-11-02T23:52:50.213Z,44.67
2018-11-02T23:55:18.751Z,44.33
2018-11-02T23:57:47.310Z,44.97
